createdAt,value
2019-03-03T00:00:51.943Z,9.50
2019-03-03T00:03:21.396Z,9.40
2019-03-03T00:05:50.867Z,9.40
2019-03-03T00:08:20.318Z,9.40
2019-03-03T00:10:49.863Z,9.30
2019-03-03T00:13:19.378Z,9.40
2019-03-03T00:15:49.924Z,9.40
2019-03-03T00:18:19.448Z,9.50
2019-03-03T00:21:06.810Z,9.50
2019-03-03T00:23:37.879Z,9.50
2019-03-03T00:26:07.351Z,9.50
2019-03-03T00:28:36.806Z,9.50
2019-03-03T00:31:06.352Z,9.60
2019-03-03T00:33:36.776Z,9.50
2019-03-03T00:36:06.252Z,9.60
2019-03-03T00:38:40.306Z,9.50
2019-03-03T00:41:17.295Z,9.50
2019-03-03T00:43:48.398Z,9.50
2019-03-03T00:46:19.502Z,9.40
2019-03-03T00:48:59.046Z,9.50
2019-03-03T00:51:30.160Z,9.40
2019-03-03T00:54:01.256Z,9.40
2019-03-03T00:56:47.594Z,9.40
2019-03-03T00:59:18.690Z,9.40
2019-03-03T01:02:01.908Z,9.30
2019-03-03T01:04:38.672Z,9.30
2019-03-03T01:07:26.260Z,9.50
2019-03-03T01:09:57.347Z,9.50
2019-03-03T01:12:28.999Z,9.50
2019-03-03T01:15:00.173Z,9.50
2019-03-03T01:17:31.506Z,9.50
2019-03-03T01:20:08.527Z,9.50
2019-03-03T01:22:57.912Z,9.50
2019-03-03T01:25:27.359Z,9.50
2019-03-03T01:27:56.838Z,9.50
2019-03-03T01:30:26.288Z,9.50
2019-03-03T01:32:55.764Z,9.50
2019-03-03T01:35:25.224Z,9.50
2019-03-03T01:37:54.695Z,9.50
2019-03-03T01:40:24.143Z,9.50
2019-03-03T01:42:53.629Z,9.50
2019-03-03T01:45:24.152Z,9.60
2019-03-03T01:47:53.623Z,9.50
2019-03-03T01:50:23.075Z,9.50
2019-03-03T01:52:52.543Z,9.60
2019-03-03T01:55:21.998Z,9.70
2019-03-03T01:57:51.465Z,9.60
2019-03-03T02:00:22.760Z,9.60
2019-03-03T02:02:52.369Z,9.60
2019-03-03T02:05:21.896Z,9.60
2019-03-03T02:07:51.366Z,9.60
2019-03-03T02:10:24.626Z,9.50
2019-03-03T02:12:54.167Z,9.50
2019-03-03T02:15:23.971Z,9.50
2019-03-03T02:17:53.516Z,9.50
2019-03-03T02:20:22.967Z,9.50
2019-03-03T02:22:52.440Z,9.50
2019-03-03T02:25:22.157Z,9.50
2019-03-03T02:27:51.803Z,9.50
2019-03-03T02:30:22.096Z,9.60
2019-03-03T02:32:51.837Z,9.60
2019-03-03T02:35:21.306Z,9.50
2019-03-03T02:37:50.763Z,9.60
2019-03-03T02:40:20.384Z,9.60
2019-03-03T02:42:49.865Z,9.60
2019-03-03T02:45:19.689Z,9.60
2019-03-03T02:47:49.169Z,9.70
2019-03-03T02:50:18.616Z,9.70
2019-03-03T02:52:48.097Z,9.70
2019-03-03T02:55:17.812Z,9.70
2019-03-03T02:57:47.291Z,9.80
2019-03-03T03:00:19.445Z,9.80
2019-03-03T03:02:54.067Z,9.70
2019-03-03T03:05:27.006Z,9.70
2019-03-03T03:08:03.829Z,9.70
2019-03-03T03:10:37.405Z,9.70
2019-03-03T03:13:23.782Z,9.70
2019-03-03T03:15:57.821Z,9.70
2019-03-03T03:18:28.948Z,9.70
2019-03-03T03:21:18.855Z,9.70
2019-03-03T03:23:58.570Z,9.70
2019-03-03T03:26:44.931Z,9.80
2019-03-03T03:29:28.003Z,9.80
2019-03-03T03:31:59.097Z,9.90
2019-03-03T03:34:35.679Z,9.70
2019-03-03T03:37:06.778Z,9.70
2019-03-03T03:39:54.307Z,9.70
2019-03-03T03:42:56.333Z,9.70
2019-03-03T03:45:39.608Z,9.70
2019-03-03T03:48:13.531Z,9.70
2019-03-03T03:50:47.350Z,9.80
2019-03-03T03:53:19.537Z,9.70
2019-03-03T03:56:06.935Z,9.70
2019-03-03T03:58:41.212Z,9.70
2019-03-03T04:01:27.609Z,9.70
2019-03-03T04:04:15.083Z,9.60
2019-03-03T04:06:48.899Z,9.60
2019-03-03T04:09:22.545Z,9.60
2019-03-03T04:11:56.593Z,9.60
2019-03-03T04:14:39.829Z,9.60
2019-03-03T04:17:26.991Z,9.60
2019-03-03T04:20:14.532Z,9.60
2019-03-03T04:22:48.456Z,9.60
2019-03-03T04:25:35.615Z,9.60
2019-03-03T04:28:06.685Z,9.70
2019-03-03T04:30:40.676Z,9.70
2019-03-03T04:33:11.762Z,9.70
2019-03-03T04:35:59.078Z,9.70
2019-03-03T04:38:41.999Z,9.70
2019-03-03T04:41:16.116Z,9.70
2019-03-03T04:43:52.719Z,9.70
2019-03-03T04:46:29.595Z,9.80
2019-03-03T04:49:15.719Z,9.70
2019-03-03T04:51:49.727Z,9.70
2019-03-03T04:54:32.867Z,9.60
2019-03-03T04:57:12.714Z,9.60
2019-03-03T04:59:43.841Z,9.60
2019-03-03T05:02:26.894Z,9.60
2019-03-03T05:05:10.034Z,9.60
2019-03-03T05:07:41.127Z,9.60
2019-03-03T05:10:12.311Z,9.60
2019-03-03T05:13:01.495Z,9.60
2019-03-03T05:15:47.675Z,9.60
2019-03-03T05:18:21.551Z,9.60
2019-03-03T05:20:51.691Z,9.60
2019-03-03T05:23:21.142Z,9.60
2019-03-03T05:25:50.606Z,9.70
2019-03-03T05:28:20.063Z,9.60
2019-03-03T05:30:49.568Z,9.60
2019-03-03T05:33:19.043Z,9.60
2019-03-03T05:35:48.503Z,9.60
2019-03-03T05:38:17.952Z,9.70
2019-03-03T05:40:47.449Z,9.60
2019-03-03T05:43:16.891Z,9.60
2019-03-03T05:45:46.367Z,9.60
2019-03-03T05:48:15.824Z,9.60
2019-03-03T05:50:45.566Z,9.60
2019-03-03T05:53:15.015Z,9.60
2019-03-03T05:55:44.522Z,9.60
2019-03-03T05:58:13.962Z,9.50
2019-03-03T06:00:43.463Z,9.50
2019-03-03T06:03:12.915Z,9.50
2019-03-03T06:05:42.750Z,9.50
2019-03-03T06:08:12.193Z,9.50
2019-03-03T06:10:41.634Z,9.50
2019-03-03T06:13:11.103Z,9.40
2019-03-03T06:15:40.559Z,9.40
2019-03-03T06:18:10.043Z,9.40
2019-03-03T06:20:39.504Z,9.40
2019-03-03T06:23:08.987Z,9.30
2019-03-03T06:25:38.429Z,9.30
2019-03-03T06:28:07.907Z,9.20
2019-03-03T06:30:37.387Z,9.10
2019-03-03T06:33:06.859Z,9.10
2019-03-03T06:35:36.314Z,9.10
2019-03-03T06:38:05.791Z,9.10
2019-03-03T06:40:35.247Z,9.10
2019-03-03T06:43:04.719Z,9.10
2019-03-03T06:45:34.168Z,9.00
2019-03-03T06:48:03.639Z,9.00
2019-03-03T06:50:33.086Z,9.00
2019-03-03T06:53:02.564Z,9.00
2019-03-03T06:55:32.018Z,9.00
2019-03-03T06:58:01.494Z,8.90
2019-03-03T07:00:30.957Z,8.90
2019-03-03T07:03:00.457Z,8.80
2019-03-03T07:05:29.937Z,8.80
2019-03-03T07:07:59.403Z,8.80
2019-03-03T07:10:28.859Z,8.80
2019-03-03T07:12:58.332Z,8.80
2019-03-03T07:15:27.787Z,8.80
2019-03-03T07:17:57.292Z,8.90
2019-03-03T07:20:26.769Z,8.80
2019-03-03T07:22:56.235Z,8.80
2019-03-03T07:25:25.713Z,8.80
2019-03-03T07:27:55.184Z,8.90
2019-03-03T07:30:24.663Z,8.90
2019-03-03T07:33:04.499Z,8.80
2019-03-03T07:35:33.951Z,8.80
2019-03-03T07:38:03.447Z,8.90
2019-03-03T07:40:32.966Z,8.90
2019-03-03T07:43:02.443Z,8.90
2019-03-03T07:45:31.899Z,9.00
2019-03-03T07:48:01.371Z,8.90
2019-03-03T07:50:30.819Z,9.00
2019-03-03T07:53:03.024Z,9.00
2019-03-03T07:55:32.481Z,9.00
2019-03-03T07:58:02.044Z,9.10
2019-03-03T08:00:31.491Z,9.10
2019-03-03T08:03:00.993Z,9.10
2019-03-03T08:05:30.444Z,9.10
2019-03-03T08:07:59.915Z,9.20
2019-03-03T08:10:29.411Z,9.10
2019-03-03T08:13:08.705Z,9.20
2019-03-03T08:15:29.971Z,9.20
2019-03-03T08:17:59.510Z,9.20
2019-03-03T08:20:28.975Z,9.10
2019-03-03T08:22:58.448Z,9.20
2019-03-03T08:25:27.966Z,9.20
2019-03-03T08:27:57.439Z,9.20
2019-03-03T08:30:26.888Z,9.20
2019-03-03T08:32:56.359Z,9.20
2019-03-03T08:35:28.923Z,9.20
2019-03-03T08:37:58.402Z,9.30
2019-03-03T08:40:27.855Z,9.30
2019-03-03T08:43:17.171Z,9.20
2019-03-03T08:46:03.340Z,9.30
2019-03-03T08:48:40.932Z,9.30
2019-03-03T08:51:12.120Z,9.20
2019-03-03T08:53:52.240Z,9.20
2019-03-03T08:56:41.680Z,9.20
2019-03-03T08:59:29.119Z,9.20
2019-03-03T09:02:06.283Z,9.30
2019-03-03T09:04:37.403Z,9.30
2019-03-03T09:07:08.767Z,9.30
2019-03-03T09:09:39.887Z,9.30
2019-03-03T09:12:26.284Z,9.40
2019-03-03T09:15:10.766Z,9.40
2019-03-03T09:17:44.565Z,9.30
2019-03-03T09:20:15.751Z,9.40
2019-03-03T09:22:49.619Z,9.40
2019-03-03T09:25:36.088Z,9.40
2019-03-03T09:28:07.245Z,9.40
2019-03-03T09:30:41.143Z,9.50
2019-03-03T09:33:24.268Z,9.50
2019-03-03T09:35:55.379Z,9.50
2019-03-03T09:38:44.992Z,9.50
2019-03-03T09:41:16.111Z,9.50
2019-03-03T09:43:49.904Z,9.40
2019-03-03T09:46:32.973Z,9.50
2019-03-03T09:49:22.192Z,9.40
2019-03-03T09:51:58.440Z,9.40
2019-03-03T09:54:32.507Z,9.50
2019-03-03T09:57:12.559Z,9.50
2019-03-03T09:59:46.647Z,9.50
2019-03-03T10:02:20.491Z,9.50
2019-03-03T10:05:00.281Z,9.50
2019-03-03T10:07:31.547Z,9.50
2019-03-03T10:10:21.014Z,9.60
2019-03-03T10:12:52.137Z,9.60
2019-03-03T10:15:28.971Z,9.60
2019-03-03T10:18:16.584Z,9.60
2019-03-03T10:21:03.321Z,9.50
2019-03-03T10:23:50.391Z,9.60
2019-03-03T10:26:36.864Z,9.60
2019-03-03T10:29:15.256Z,9.50
2019-03-03T10:32:01.539Z,9.60
2019-03-03T10:34:38.447Z,9.60
2019-03-03T10:37:24.473Z,9.60
2019-03-03T10:39:55.564Z,9.60
2019-03-03T10:42:32.302Z,9.60
2019-03-03T10:45:09.428Z,9.60
2019-03-03T10:47:52.590Z,9.50
2019-03-03T10:50:26.360Z,9.60
2019-03-03T10:53:00.198Z,9.70
2019-03-03T10:55:37.398Z,9.70
2019-03-03T10:58:14.563Z,9.70
2019-03-03T11:01:02.039Z,9.80
2019-03-03T11:03:50.763Z,9.70
2019-03-03T11:06:27.800Z,9.80
2019-03-03T11:09:04.719Z,9.80
2019-03-03T11:11:43.240Z,9.80
2019-03-03T11:14:32.451Z,9.80
2019-03-03T11:17:09.200Z,9.90
2019-03-03T11:19:52.415Z,9.90
2019-03-03T11:22:23.597Z,9.90
2019-03-03T11:25:06.943Z,9.90
2019-03-03T11:27:38.122Z,9.90
2019-03-03T11:30:28.573Z,9.90
2019-03-03T11:32:59.751Z,9.90
2019-03-03T11:35:30.851Z,10.00
2019-03-03T11:38:02.031Z,9.90
2019-03-03T11:40:42.097Z,9.90
2019-03-03T11:43:18.984Z,9.90
2019-03-03T11:45:53.089Z,9.90
2019-03-03T11:48:30.238Z,9.90
2019-03-03T11:51:01.330Z,9.90
2019-03-03T11:53:34.900Z,10.00
2019-03-03T11:56:22.867Z,10.00
2019-03-03T11:59:09.979Z,10.10
2019-03-03T12:01:46.675Z,10.10
2019-03-03T12:04:17.787Z,10.10
2019-03-03T12:06:52.839Z,10.00
2019-03-03T12:09:29.851Z,10.00
2019-03-03T12:12:07.122Z,10.00
2019-03-03T12:14:38.431Z,10.00
2019-03-03T12:17:24.912Z,10.00
2019-03-03T12:20:05.870Z,10.10
2019-03-03T12:22:36.992Z,10.10
2019-03-03T12:25:10.323Z,10.10
2019-03-03T12:27:53.711Z,10.10
2019-03-03T12:30:28.634Z,10.20
2019-03-03T12:33:14.951Z,10.10
2019-03-03T12:35:46.044Z,10.10
2019-03-03T12:38:17.188Z,10.10
2019-03-03T12:41:03.472Z,10.00
2019-03-03T12:43:37.660Z,10.00
2019-03-03T12:46:08.751Z,10.10
2019-03-03T12:48:48.744Z,10.00
2019-03-03T12:51:38.270Z,10.10
2019-03-03T12:54:09.461Z,10.10
2019-03-03T12:56:42.175Z,10.10
2019-03-03T12:59:16.083Z,10.20
2019-03-03T13:01:53.099Z,10.20
2019-03-03T13:04:26.830Z,10.20
2019-03-03T13:07:07.560Z,10.20
2019-03-03T13:09:41.695Z,10.30
2019-03-03T13:12:17.318Z,10.40
2019-03-03T13:14:48.464Z,10.50
2019-03-03T13:17:20.639Z,10.50
2019-03-03T13:20:10.642Z,10.50
2019-03-03T13:22:44.887Z,10.50
2019-03-03T13:25:22.256Z,10.50
2019-03-03T13:27:59.371Z,10.50
2019-03-03T13:30:30.560Z,10.40
2019-03-03T13:33:18.357Z,10.40
2019-03-03T13:35:52.491Z,10.40
2019-03-03T13:38:39.560Z,10.40
2019-03-03T13:41:14.619Z,10.40
2019-03-03T13:43:44.148Z,10.40
2019-03-03T13:46:13.694Z,10.40
2019-03-03T13:48:43.181Z,10.40
2019-03-03T13:51:12.710Z,10.40
2019-03-03T13:53:42.160Z,10.40
2019-03-03T13:56:11.719Z,10.40
2019-03-03T13:58:41.172Z,10.50
2019-03-03T14:01:10.906Z,10.50
2019-03-03T14:03:40.352Z,10.50
2019-03-03T14:06:09.835Z,10.60
2019-03-03T14:08:39.283Z,10.60
2019-03-03T14:11:08.759Z,10.60
2019-03-03T14:13:38.283Z,10.60
2019-03-03T14:16:07.756Z,10.60
2019-03-03T14:18:37.215Z,10.60
2019-03-03T14:21:06.764Z,10.50
2019-03-03T14:23:36.218Z,10.50
2019-03-03T14:26:05.723Z,10.50
2019-03-03T14:28:36.247Z,10.50
2019-03-03T14:31:06.233Z,10.50
2019-03-03T14:33:35.679Z,10.50
2019-03-03T14:36:05.321Z,10.60
2019-03-03T14:38:34.769Z,10.60
2019-03-03T14:41:04.312Z,10.50
2019-03-03T14:43:33.763Z,10.50
2019-03-03T14:46:03.232Z,10.40
2019-03-03T14:48:32.683Z,10.40
2019-03-03T14:51:02.260Z,10.40
2019-03-03T14:53:31.714Z,10.40
2019-03-03T14:56:01.221Z,10.40
2019-03-03T14:58:30.672Z,10.40
2019-03-03T15:01:00.158Z,10.40
2019-03-03T15:03:29.605Z,10.30
2019-03-03T15:05:59.547Z,10.30
2019-03-03T15:08:29.266Z,10.40
2019-03-03T15:10:58.739Z,10.40
2019-03-03T15:13:28.288Z,10.40
2019-03-03T15:15:57.832Z,10.40
2019-03-03T15:18:27.288Z,10.50
2019-03-03T15:20:56.895Z,10.50
2019-03-03T15:23:26.324Z,10.40
2019-03-03T15:25:56.835Z,10.40
2019-03-03T15:28:26.282Z,10.30
2019-03-03T15:30:55.773Z,10.40
2019-03-03T15:33:25.228Z,10.30
2019-03-03T15:35:54.739Z,10.30
2019-03-03T15:38:24.473Z,10.30
2019-03-03T15:40:54.055Z,10.30
2019-03-03T15:43:23.583Z,10.30
2019-03-03T15:45:53.127Z,10.30
2019-03-03T15:48:22.607Z,10.30
2019-03-03T15:50:52.059Z,10.20
2019-03-03T15:53:21.548Z,10.30
2019-03-03T15:55:52.137Z,10.20
2019-03-03T15:58:21.611Z,10.20
2019-03-03T16:00:51.073Z,10.20
2019-03-03T16:03:20.547Z,10.20
2019-03-03T16:05:50.000Z,10.30
2019-03-03T16:08:19.475Z,10.20
2019-03-03T16:10:48.935Z,10.20
2019-03-03T16:13:18.445Z,10.10
2019-03-03T16:15:47.919Z,10.10
2019-03-03T16:18:17.392Z,10.10
2019-03-03T16:20:46.850Z,10.20
2019-03-03T16:23:16.332Z,10.20
2019-03-03T16:25:45.779Z,10.10
2019-03-03T16:28:15.291Z,10.10
2019-03-03T16:30:44.739Z,10.10
2019-03-03T16:33:20.603Z,10.10
2019-03-03T16:35:45.295Z,10.20
2019-03-03T16:38:14.767Z,10.20
2019-03-03T16:40:46.071Z,10.30
2019-03-03T16:43:15.336Z,10.20
2019-03-03T16:45:44.796Z,10.40
2019-03-03T16:48:14.350Z,10.40
2019-03-03T16:50:43.836Z,10.30
2019-03-03T16:53:13.310Z,10.40
2019-03-03T16:55:42.907Z,10.40
2019-03-03T16:58:12.448Z,10.40
2019-03-03T17:00:42.076Z,10.30
2019-03-03T17:03:11.626Z,10.30
2019-03-03T17:05:41.102Z,10.40
2019-03-03T17:08:10.560Z,10.40
2019-03-03T17:10:40.091Z,10.40
2019-03-03T17:13:09.691Z,10.40
2019-03-03T17:15:39.156Z,10.50
2019-03-03T17:18:08.898Z,10.50
2019-03-03T17:20:38.367Z,10.50
2019-03-03T17:23:07.907Z,10.50
2019-03-03T17:25:37.396Z,10.60
2019-03-03T17:28:07.944Z,10.50
2019-03-03T17:30:38.398Z,10.60
2019-03-03T17:33:08.842Z,10.50
2019-03-03T17:35:38.304Z,10.50
2019-03-03T17:38:07.784Z,10.50
2019-03-03T17:40:37.243Z,10.50
2019-03-03T17:43:06.762Z,10.40
2019-03-03T17:45:36.203Z,10.50
2019-03-03T17:48:05.680Z,10.40
2019-03-03T17:50:35.140Z,10.40
2019-03-03T17:53:04.692Z,10.40
2019-03-03T17:55:34.145Z,10.50
2019-03-03T17:58:04.678Z,10.50
2019-03-03T18:00:38.855Z,10.50
2019-03-03T18:03:08.364Z,10.50
2019-03-03T18:05:37.848Z,10.60
2019-03-03T18:08:07.400Z,10.50
2019-03-03T18:10:36.851Z,10.50
2019-03-03T18:13:06.491Z,10.60
2019-03-03T18:15:35.967Z,10.60
2019-03-03T18:18:06.901Z,10.60
2019-03-03T18:20:36.413Z,10.60
2019-03-03T18:23:05.895Z,10.60
2019-03-03T18:25:35.363Z,10.50
2019-03-03T18:28:04.815Z,10.50
2019-03-03T18:30:34.600Z,10.50
2019-03-03T18:33:04.143Z,10.50
2019-03-03T18:35:33.623Z,10.40
2019-03-03T18:38:03.083Z,10.50
2019-03-03T18:40:32.677Z,10.50
2019-03-03T18:43:02.139Z,10.50
2019-03-03T18:45:31.620Z,10.50
2019-03-03T18:48:01.076Z,10.50
2019-03-03T18:50:31.123Z,10.60
2019-03-03T18:53:00.608Z,10.60
2019-03-03T18:55:30.112Z,10.60
2019-03-03T18:57:59.596Z,10.60
2019-03-03T19:00:32.383Z,10.60
2019-03-03T19:03:01.903Z,10.50
2019-03-03T19:05:32.452Z,10.60
2019-03-03T19:08:01.987Z,10.60
2019-03-03T19:10:33.912Z,10.60
2019-03-03T19:13:03.472Z,10.60
2019-03-03T19:15:33.471Z,10.50
2019-03-03T19:18:03.082Z,10.60
2019-03-03T19:20:32.555Z,10.60
2019-03-03T19:23:02.011Z,10.60
2019-03-03T19:25:31.492Z,10.60
2019-03-03T19:28:00.976Z,10.60
2019-03-03T19:30:31.071Z,10.60
2019-03-03T19:33:15.447Z,10.60
2019-03-03T19:35:45.059Z,10.60
2019-03-03T19:38:14.584Z,10.60
2019-03-03T19:40:44.063Z,10.60
2019-03-03T19:43:13.617Z,10.60
2019-03-03T19:45:45.835Z,10.60
2019-03-03T19:48:15.640Z,10.60
2019-03-03T19:50:45.111Z,10.70
2019-03-03T19:53:15.536Z,10.80
2019-03-03T19:55:45.016Z,10.70
2019-03-03T19:58:14.579Z,10.80
2019-03-03T20:00:44.895Z,10.80
2019-03-03T20:03:14.564Z,10.80
2019-03-03T20:05:44.140Z,10.80
2019-03-03T20:08:13.587Z,10.90
2019-03-03T20:10:43.311Z,10.90
2019-03-03T20:13:12.767Z,10.90
2019-03-03T20:15:42.323Z,10.90
2019-03-03T20:18:11.792Z,10.80
2019-03-03T20:20:41.264Z,10.90
2019-03-03T20:23:10.748Z,10.90
2019-03-03T20:25:40.365Z,10.90
2019-03-03T20:28:09.988Z,10.90
2019-03-03T20:30:39.708Z,10.90
2019-03-03T20:33:09.248Z,10.90
2019-03-03T20:35:38.728Z,10.90
2019-03-03T20:38:09.244Z,10.90
2019-03-03T20:40:39.233Z,10.90
2019-03-03T20:43:08.947Z,11.00
2019-03-03T20:45:38.452Z,11.00
2019-03-03T20:48:07.903Z,10.90
2019-03-03T20:50:37.427Z,10.90
2019-03-03T20:53:06.916Z,11.00
2019-03-03T20:55:36.422Z,11.00
2019-03-03T20:58:05.943Z,11.10
2019-03-03T21:00:35.860Z,11.20
2019-03-03T21:03:05.329Z,11.20
2019-03-03T21:05:34.803Z,11.20
2019-03-03T21:08:04.255Z,11.20
2019-03-03T21:10:36.796Z,11.10
2019-03-03T21:13:06.251Z,11.20
2019-03-03T21:15:35.800Z,11.20
2019-03-03T21:18:05.279Z,11.20
2019-03-03T21:20:34.766Z,11.20
2019-03-03T21:23:04.311Z,11.20
2019-03-03T21:25:33.804Z,11.30
2019-03-03T21:28:03.283Z,11.30
2019-03-03T21:30:32.743Z,11.20
2019-03-03T21:33:02.232Z,11.20
2019-03-03T21:35:32.655Z,11.10
2019-03-03T21:38:02.208Z,11.10
2019-03-03T21:40:31.795Z,11.20
2019-03-03T21:43:01.283Z,11.20
2019-03-03T21:45:49.316Z,11.20
2019-03-03T21:48:18.769Z,11.30
2019-03-03T21:50:48.243Z,11.20
2019-03-03T21:53:17.723Z,11.30
2019-03-03T21:55:47.219Z,11.30
2019-03-03T21:58:16.684Z,11.30
2019-03-03T22:00:46.280Z,11.30
2019-03-03T22:03:15.748Z,11.30
2019-03-03T22:05:45.209Z,11.40
2019-03-03T22:08:14.682Z,11.40
2019-03-03T22:10:44.158Z,11.40
2019-03-03T22:13:13.631Z,11.50
2019-03-03T22:15:43.115Z,11.60
2019-03-03T22:18:12.593Z,11.40
2019-03-03T22:20:42.076Z,11.60
2019-03-03T22:23:11.550Z,11.60
2019-03-03T22:25:41.036Z,11.60
2019-03-03T22:28:10.507Z,11.60
2019-03-03T22:30:39.989Z,11.60
2019-03-03T22:33:09.483Z,11.50
2019-03-03T22:35:38.947Z,11.60
2019-03-03T22:38:08.424Z,11.50
2019-03-03T22:40:37.940Z,11.40
2019-03-03T22:43:07.447Z,11.30
2019-03-03T22:45:36.902Z,11.20
2019-03-03T22:48:06.375Z,11.30
2019-03-03T22:50:35.836Z,11.30
2019-03-03T22:53:05.307Z,11.30
2019-03-03T22:55:36.201Z,11.30
2019-03-03T22:58:05.679Z,11.30
2019-03-03T23:00:48.811Z,11.30
2019-03-03T23:03:25.564Z,11.40
2019-03-03T23:06:16.107Z,11.30
2019-03-03T23:09:12.501Z,11.20
2019-03-03T23:12:00.570Z,11.30
2019-03-03T23:14:45.456Z,11.20
2019-03-03T23:17:20.769Z,11.10
2019-03-03T23:19:56.107Z,11.10
2019-03-03T23:22:31.559Z,11.10
2019-03-03T23:25:12.970Z,11.00
2019-03-03T23:27:43.548Z,10.90
2019-03-03T23:30:13.068Z,10.90
2019-03-03T23:32:42.547Z,10.80
2019-03-03T23:35:12.000Z,10.90
2019-03-03T23:37:42.383Z,10.80
2019-03-03T23:40:11.845Z,10.90
2019-03-03T23:42:41.301Z,10.90
2019-03-03T23:45:11.320Z,10.90
2019-03-03T23:47:40.786Z,10.80
2019-03-03T23:50:10.320Z,10.80
2019-03-03T23:52:39.779Z,10.80
2019-03-03T23:55:09.421Z,10.90
2019-03-03T23:57:38.871Z,11.00
